Time;durP1;ratioP1;P1;durP2;ratioP2;P2;SDS_P1;SDS_P2;PMS_P1;PMS_P2;Temp;Humidity;BMP_temperature;BMP_pressure;BME280_temperature;BME280_humidity;BME280_pressure;Samples;Min_cycle;Max_cycle;Signal;HPM_P1;HPM_P2
2022/05/18 00:02:13;;;;;;;14.00;12.80;;;;;;;14.97;84.95;101694.03;7395439;19;20458;-68
2022/05/18 00:04:41;;;;;;;15.00;13.40;;;;;;;14.95;85.04;101698.50;7398338;19;20039;-70
2022/05/18 00:07:09;;;;;;;15.13;13.65;;;;;;;14.94;85.20;101702.91;7397177;19;20428;-67
2022/05/18 00:09:37;;;;;;;14.77;13.40;;;;;;;14.93;85.19;101705.59;7396354;19;20499;-67
2022/05/18 00:12:09;;;;;;;14.50;13.00;;;;;;;14.91;85.71;101704.75;7395597;19;20027;-67
2022/05/18 00:14:38;;;;;;;13.30;12.10;;;;;;;14.87;85.56;101714.53;7395853;19;20023;-67
2022/05/18 00:17:07;;;;;;;13.40;12.13;;;;;;;14.85;85.58;101712.84;7396798;19;20482;-66
2022/05/18 00:19:35;;;;;;;12.07;11.07;;;;;;;14.82;85.53;101705.84;7395970;19;20356;-66
2022/05/18 00:22:03;;;;;;;12.30;11.13;;;;;;;14.78;85.20;101710.34;7395230;19;20028;-67
2022/05/18 00:24:31;;;;;;;12.38;11.18;;;;;;;14.75;85.33;101713.06;7396773;19;20506;-67
2022/05/18 00:27:03;;;;;;;11.93;10.77;;;;;;;14.73;85.40;101725.44;7395039;19;20031;-66
2022/05/18 00:29:33;;;;;;;10.43;9.50;;;;;;;14.70;85.42;101725.50;7395820;19;20482;-67
2022/05/18 00:32:02;;;;;;;11.13;10.13;;;;;;;14.66;85.19;101730.00;7396749;19;20011;-67
2022/05/18 00:34:31;;;;;;;10.82;9.93;;;;;;;14.63;85.33;101729.16;7396496;19;20035;-67
2022/05/18 00:36:59;;;;;;;10.90;9.90;;;;;;;14.59;85.40;101728.34;7396649;19;20014;-67
2022/05/18 00:39:27;;;;;;;11.95;10.95;;;;;;;14.58;85.07;101737.19;7395388;19;20346;-67
2022/05/18 00:41:55;;;;;;;12.43;11.13;;;;;;;14.53;85.55;101738.19;7396882;19;20018;-67
2022/05/18 00:44:23;;;;;;;13.38;12.15;;;;;;;14.47;85.20;101742.72;7396336;19;20026;-67
2022/05/18 00:46:54;;;;;;;12.13;11.10;;;;;;;14.44;85.10;101747.19;7395691;19;20014;-67
2022/05/18 00:49:22;;;;;;;11.27;10.18;;;;;;;14.40;84.90;101753.44;7395978;19;20022;-67
2022/05/18 00:51:54;;;;;;;10.95;10.05;;;;;;;14.36;84.18;101759.72;7395693;19;20494;-67
2022/05/18 00:54:27;;;;;;;10.63;9.52;;;;;;;14.31;82.52;101759.78;7393782;19;20023;-67
2022/05/18 00:56:59;;;;;;;9.55;8.55;;;;;;;14.26;81.84;101772.22;7394405;19;20435;-66
2022/05/18 00:59:32;;;;;;;11.10;8.68;;;;;;;14.22;80.71;101773.19;7395297;19;20022;-67
2022/05/18 01:02:04;;;;;;;8.80;7.97;;;;;;;14.17;79.75;101774.13;7394687;19;20023;-67
2022/05/18 01:04:33;;;;;;;10.10;8.95;;;;;;;14.13;79.48;101780.38;7394427;19;20014;-66
2022/05/18 01:07:06;;;;;;;9.93;8.13;;;;;;;14.11;78.80;101787.44;7395139;19;20014;-67
2022/05/18 01:09:37;;;;;;;10.27;9.27;;;;;;;14.09;78.67;101784.00;7394143;19;20050;-67
2022/05/18 01:12:06;;;;;;;10.02;8.82;;;;;;;14.05;77.94;101792.84;7394338;19;20018;-67
2022/05/18 01:14:38;;;;;;;8.77;7.93;;;;;;;14.01;77.78;101796.44;7396076;19;20018;-67
2022/05/18 01:17:11;;;;;;;8.73;7.90;;;;;;;13.97;76.78;101810.59;7393903;19;20108;-67
2022/05/18 01:19:44;;;;;;;8.32;7.63;;;;;;;13.93;76.92;101811.56;7394778;19;20039;-67
2022/05/18 01:22:20;;;;;;;9.52;7.93;;;;;;;13.88;76.09;101808.16;7394883;19;20471;-66
2022/05/18 01:24:57;;;;;;;8.23;7.43;;;;;;;13.81;75.38;101810.91;7395248;19;20018;-67
2022/05/18 01:27:28;;;;;;;8.05;7.25;;;;;;;13.76;75.27;101818.03;7392965;19;20376;-67
2022/05/18 01:29:57;;;;;;;11.18;6.65;;;;;;;13.69;74.37;101816.38;7394274;19;20039;-66
2022/05/18 01:32:26;;;;;;;9.23;6.88;;;;;;;13.64;74.68;101818.25;7394889;19;20015;-67
2022/05/18 01:34:54;;;;;;;12.13;6.43;;;;;;;13.58;73.64;101820.97;7394859;19;20037;-66
2022/05/18 01:37:22;;;;;;;8.55;6.88;;;;;;;13.52;73.59;101828.09;7393073;19;20018;-67
2022/05/18 01:39:56;;;;;;;9.05;6.22;;;;;;;13.47;73.29;101824.66;7392481;19;20034;-67
2022/05/18 01:42:32;;;;;;;7.47;5.70;;;;;;;13.41;72.83;101827.41;7395181;19;20021;-67
2022/05/18 01:45:00;;;;;;;6.75;5.30;;;;;;;13.35;72.26;101824.84;7394983;19;20032;-67
2022/05/18 01:47:35;;;;;;;6.88;5.65;;;;;;;13.29;72.08;101833.69;7392605;19;20019;-66
2022/05/18 01:50:05;;;;;;;9.00;5.45;;;;;;;13.24;72.04;101837.31;7392801;19;20015;-67
2022/05/18 01:52:34;;;;;;;6.95;5.15;;;;;;;13.18;71.52;101839.16;7394812;19;20022;-66
2022/05/18 01:55:03;;;;;;;5.15;4.65;;;;;;;13.13;71.54;101840.97;7392352;19;20019;-67
2022/05/18 01:57:36;;;;;;;6.55;5.07;;;;;;;13.07;70.01;101838.44;7394252;19;20035;-67
2022/05/18 02:00:04;;;;;;;6.50;4.53;;;;;;;13.03;70.78;101852.56;7393380;19;20134;-67
2022/05/18 02:02:32;;;;;;;9.20;5.35;;;;;;;12.96;70.79;101848.25;7393682;19;20478;-67
2022/05/18 02:05:00;;;;;;;6.45;5.00;;;;;;;12.91;70.69;101845.66;7392115;19;20018;-67
2022/05/18 02:07:29;;;;;;;8.25;4.47;;;;;;;12.86;69.98;101853.66;7395481;19;20022;-67
2022/05/18 02:09:58;;;;;;;6.55;4.40;;;;;;;12.81;69.91;101851.97;7398618;19;20035;-66
2022/05/18 02:12:26;;;;;;;5.68;4.05;;;;;;;12.77;69.86;101852.91;7398315;19;20032;-67
2022/05/18 02:14:56;;;;;;;5.93;4.20;;;;;;;12.73;69.44;101851.22;7401248;19;20022;-66
2022/05/18 02:17:25;;;;;;;7.15;3.35;;;;;;;12.67;68.95;101845.09;7402162;19;20032;-67
2022/05/18 02:19:54;;;;;;;5.03;3.88;;;;;;;12.63;68.76;101850.44;7401138;19;20038;-68
2022/05/18 02:22:23;;;;;;;5.18;3.85;;;;;;;12.58;68.48;101850.50;7402073;19;20011;-66
2022/05/18 02:24:51;;;;;;;6.40;3.65;;;;;;;12.54;68.27;101848.81;7400825;19;20047;-67
2022/05/18 02:27:19;;;;;;;7.93;3.40;;;;;;;12.49;67.69;101846.22;7400222;19;20035;-66
2022/05/18 02:29:47;;;;;;;4.88;3.00;;;;;;;12.44;67.32;101844.53;7399475;19;20027;-67
2022/05/18 02:32:18;;;;;;;4.13;2.95;;;;;;;12.38;66.98;101845.47;7400339;19;20018;-66
2022/05/18 02:34:46;;;;;;;5.35;2.88;;;;;;;12.35;66.69;101850.78;7400733;19;20014;-66
2022/05/18 02:37:14;;;;;;;6.88;3.10;;;;;;;12.31;66.60;101852.56;7397321;19;20498;-66
2022/05/18 02:39:42;;;;;;;3.78;3.28;;;;;;;12.28;66.29;101843.84;7396911;19;20010;-67
2022/05/18 02:42:11;;;;;;;5.60;3.25;;;;;;;12.23;65.88;101843.88;7400880;19;20022;-66
2022/05/18 02:44:39;;;;;;;5.00;3.30;;;;;;;12.18;65.90;101849.22;7397771;19;20027;-66
2022/05/18 02:47:07;;;;;;;5.57;2.90;;;;;;;12.13;65.45;101845.75;7400451;19;20473;-67
2022/05/18 02:49:38;;;;;;;6.38;2.78;;;;;;;12.10;64.89;101850.19;7397551;19;20023;-67
2022/05/18 02:52:07;;;;;;;6.95;3.05;;;;;;;12.05;64.63;101852.84;7400418;19;20035;-67
2022/05/18 02:57:15;;;;;;;4.47;2.58;;;;;;;11.96;64.33;101855.56;7400457;19;20420;-67
2022/05/18 02:59:44;;;;;;;3.75;2.13;;;;;;;11.93;64.07;101855.56;7397070;19;20517;-66
2022/05/18 03:02:12;;;;;;;5.18;2.33;;;;;;;11.88;63.92;101860.88;7400053;19;20018;-67
2022/05/18 03:04:42;;;;;;;5.63;2.17;;;;;;;11.85;63.38;101864.41;7399636;19;20024;-66
2022/05/18 03:07:11;;;;;;;3.25;2.25;;;;;;;11.81;63.61;101860.03;7397537;19;20018;-67
2022/05/18 03:09:39;;;;;;;7.70;2.30;;;;;;;11.79;63.23;101867.09;7398528;19;20035;-67
2022/05/18 03:12:08;;;;;;;4.57;2.50;;;;;;;11.77;63.28;101868.84;7397088;19;20026;-67
2022/05/18 03:14:36;;;;;;;7.00;2.35;;;;;;;11.74;63.05;101874.16;7399340;19;20032;-66
2022/05/18 03:17:05;;;;;;;4.43;2.10;;;;;;;11.72;62.65;101875.91;7396597;19;20483;-67
2022/05/18 03:19:34;;;;;;;4.22;2.28;;;;;;;11.69;62.33;101881.16;7397402;19;20516;-67
2022/05/18 03:24:45;;;;;;;4.07;1.95;;;;;;;11.62;61.87;101890.03;7399201;19;20013;-67
2022/05/18 03:27:13;;;;;;;4.90;2.53;;;;;;;11.58;61.85;101890.03;7398537;19;20022;-67
2022/05/18 03:29:41;;;;;;;4.15;2.15;;;;;;;11.57;61.85;101897.94;7396497;19;20026;-67
2022/05/18 03:32:10;;;;;;;3.95;1.98;;;;;;;11.54;61.54;101896.19;7398580;19;20014;-67
2022/05/18 03:34:39;;;;;;;3.33;2.03;;;;;;;11.52;61.61;101900.56;7396029;19;20022;-67
2022/05/18 03:37:09;;;;;;;5.35;2.15;;;;;;;11.50;60.75;101906.72;7395845;19;20018;-66
2022/05/18 03:39:37;;;;;;;6.05;2.00;;;;;;;11.48;61.10;101901.50;7395263;19;20052;-66
2022/05/18 03:42:07;;;;;;;6.43;2.13;;;;;;;11.47;60.85;101904.13;7395132;19;20489;-66
2022/05/18 03:44:35;;;;;;;2.35;1.95;;;;;;;11.45;60.93;101904.16;7396010;19;20018;-66
2022/05/18 03:47:03;;;;;;;6.43;1.95;;;;;;;11.41;60.72;101905.94;7397312;19;20482;-66
2022/05/18 03:49:38;;;;;;;3.55;2.00;;;;;;;11.42;60.54;101909.41;7395191;19;20026;-66
2022/05/18 03:52:09;;;;;;;7.90;2.67;;;;;;;11.41;60.41;101905.94;7397029;19;20019;-66
2022/05/18 03:54:37;;;;;;;6.40;2.30;;;;;;;11.36;60.23;101901.56;7395896;19;20031;-67
2022/05/18 03:57:10;;;;;;;3.90;1.98;;;;;;;11.39;60.08;101909.44;7395315;19;20505;-67
2022/05/18 03:59:38;;;;;;;5.80;1.88;;;;;;;11.39;59.98;101912.94;7396749;19;20022;-67
2022/05/18 04:02:08;;;;;;;5.10;2.30;;;;;;;11.40;59.69;101912.06;7395242;19;20022;-67
2022/05/18 04:04:36;;;;;;;5.88;1.77;;;;;;;11.40;59.69;101912.06;7394871;19;20056;-66
2022/05/18 04:07:05;;;;;;;3.33;2.05;;;;;;;11.40;59.27;101916.47;7394621;19;20031;-66
2022/05/18 04:09:35;;;;;;;3.90;2.13;;;;;;;11.40;59.13;101916.47;7395188;19;20035;-67
2022/05/18 04:12:03;;;;;;;5.53;3.13;;;;;;;11.39;58.85;101922.59;7394981;19;20039;-67
2022/05/18 04:14:32;;;;;;;5.38;1.70;;;;;;;11.39;58.97;101922.59;7394574;19;20039;-67
2022/05/18 04:17:00;;;;;;;4.55;1.52;;;;;;;11.38;58.77;101924.31;7396870;19;20028;-67
2022/05/18 04:19:28;;;;;;;5.75;1.92;;;;;;;11.38;58.75;101926.09;7394737;19;20022;-66
2022/05/18 04:21:56;;;;;;;5.30;2.03;;;;;;;11.38;58.66;101929.56;7394752;19;20019;-67
2022/05/18 04:24:24;;;;;;;6.18;1.73;;;;;;;11.38;58.39;101923.47;7396011;19;20502;-68
2022/05/18 04:26:57;;;;;;;4.82;1.80;;;;;;;11.41;58.63;101928.69;7394218;19;20015;-67
2022/05/18 04:29:25;;;;;;;5.50;2.13;;;;;;;11.42;58.34;101935.69;7392517;19;20054;-66
2022/05/18 04:31:53;;;;;;;15.38;1.90;;;;;;;11.44;58.19;101927.78;7393952;19;20018;-67
2022/05/18 04:34:22;;;;;;;4.28;1.95;;;;;;;11.45;58.04;101927.81;7394005;19;20014;-67
2022/05/18 04:36:50;;;;;;;5.65;2.00;;;;;;;11.47;58.13;101928.66;7395776;19;20046;-67
2022/05/18 04:39:18;;;;;;;3.70;1.80;;;;;;;11.49;58.01;101931.28;7394406;19;20046;-68
2022/05/18 04:41:46;;;;;;;4.18;1.85;;;;;;;11.52;57.84;101936.50;7394080;19;20031;-67
2022/05/18 04:44:17;;;;;;;5.72;2.03;;;;;;;11.54;57.56;101940.00;7396006;19;20011;-67
2022/05/18 04:46:46;;;;;;;4.15;1.73;;;;;;;11.57;57.57;101937.34;7394212;19;20383;-67
2022/05/18 04:49:15;;;;;;;2.55;1.55;;;;;;;11.58;57.53;101939.97;7394764;19;20018;-67
2022/05/18 04:51:43;;;;;;;5.68;2.90;;;;;;;11.61;57.35;101940.84;7393981;19;20019;-67
2022/05/18 04:54:11;;;;;;;4.72;1.90;;;;;;;11.62;57.00;101946.06;7395889;19;20130;-67
2022/05/18 04:56:39;;;;;;;5.43;2.00;;;;;;;11.64;57.13;101940.81;7394070;19;20010;-67
2022/05/18 04:59:08;;;;;;;5.03;2.17;;;;;;;11.68;57.13;101945.19;7393079;19;20034;-67
2022/05/18 05:01:38;;;;;;;6.22;1.70;;;;;;;11.72;57.14;101949.53;7394602;19;20485;-69
2022/05/18 05:04:09;;;;;;;3.13;2.13;;;;;;;11.74;57.04;101948.63;7392597;19;20022;-67
2022/05/18 05:06:37;;;;;;;4.20;2.30;;;;;;;11.80;56.89;101944.19;7393809;19;20018;-66
2022/05/18 05:09:06;;;;;;;4.93;1.92;;;;;;;11.84;56.83;101959.06;7391135;19;20026;-67
2022/05/18 05:11:34;;;;;;;4.90;1.95;;;;;;;11.88;56.56;101955.56;7392986;19;20015;-68
2022/05/18 05:14:02;;;;;;;8.95;2.38;;;;;;;11.92;56.52;101954.63;7392747;19;20363;-67
2022/05/18 05:16:30;;;;;;;5.20;1.88;;;;;;;11.97;56.56;101966.00;7394399;19;20031;-67
2022/05/18 05:19:01;;;;;;;3.00;1.38;;;;;;;11.99;56.25;101958.09;7393432;19;20060;-66
2022/05/18 05:21:29;;;;;;;4.72;1.73;;;;;;;12.08;56.08;101962.41;7394854;19;20014;-67
2022/05/18 05:23:57;;;;;;;5.55;1.48;;;;;;;12.10;55.99;101963.28;7394194;19;20022;-67
2022/05/18 05:26:26;;;;;;;2.72;1.83;;;;;;;12.15;56.03;101958.84;7393037;19;20027;-67
2022/05/18 05:28:54;;;;;;;5.13;2.00;;;;;;;12.21;55.92;101964.06;7391932;19;20022;-67
2022/05/18 05:31:22;;;;;;;5.10;2.33;;;;;;;12.27;55.96;101965.75;7394153;19;20466;-67
2022/05/18 05:33:50;;;;;;;5.07;2.22;;;;;;;12.34;55.82;101963.03;7393848;19;20044;-67
2022/05/18 05:36:28;;;;;;;5.25;2.30;;;;;;;12.41;55.65;101965.63;7392150;19;20014;-67
2022/05/18 05:38:57;;;;;;;4.63;2.00;;;;;;;12.46;55.63;101964.72;7393775;19;20032;-66
2022/05/18 05:41:26;;;;;;;3.53;1.70;;;;;;;12.52;55.53;101972.53;7391168;19;20007;-66
2022/05/18 05:43:55;;;;;;;5.70;2.00;;;;;;;12.57;55.36;101967.22;7400801;19;20402;-67
2022/05/18 05:46:23;;;;;;;3.75;1.80;;;;;;;12.62;55.31;101964.53;7398301;19;20042;-67
2022/05/18 05:48:52;;;;;;;3.25;1.67;;;;;;;12.67;55.14;101965.34;7400440;19;20015;-67
2022/05/18 05:51:23;;;;;;;8.02;4.07;;;;;;;12.71;55.07;101970.59;7401658;19;20039;-67
2022/05/18 05:53:53;;;;;;;5.28;2.33;;;;;;;12.77;55.10;101974.91;7397712;19;20546;-67
2022/05/18 05:56:23;;;;;;;5.22;2.40;;;;;;;12.84;55.10;101973.94;7398551;19;20049;-67
2022/05/18 05:58:51;;;;;;;4.35;1.90;;;;;;;12.91;54.92;101976.50;7398248;19;20031;-67
2022/05/18 06:01:21;;;;;;;5.68;2.50;;;;;;;12.96;55.00;101974.69;7398262;19;20015;-66
2022/05/18 06:03:49;;;;;;;6.47;3.17;;;;;;;13.02;54.95;101972.84;7397863;19;20029;-67
2022/05/18 06:06:19;;;;;;;6.60;2.35;;;;;;;13.08;54.72;101974.56;7400501;19;20489;-67
2022/05/18 06:08:50;;;;;;;7.80;2.95;;;;;;;13.13;54.81;101971.84;7397015;19;20027;-66
2022/05/18 06:11:18;;;;;;;5.28;2.30;;;;;;;13.18;54.96;101976.16;7401062;19;20018;-67
2022/05/18 06:13:47;;;;;;;5.38;2.35;;;;;;;13.25;54.92;101984.00;7400970;19;20022;-68
2022/05/18 06:16:15;;;;;;;3.15;2.40;;;;;;;13.30;54.95;101990.06;7401094;19;20022;-67
2022/05/18 06:18:43;;;;;;;9.50;4.03;;;;;;;13.33;54.82;101990.91;7398009;19;20022;-67
2022/05/18 06:21:11;;;;;;;7.35;2.08;;;;;;;13.40;54.91;101994.34;7398148;19;20041;-68
2022/05/18 06:23:39;;;;;;;4.97;2.03;;;;;;;13.44;54.85;102001.31;7400265;19;20486;-67
2022/05/18 06:26:10;;;;;;;3.75;2.58;;;;;;;13.49;54.84;102002.13;7396996;19;20419;-67
2022/05/18 06:28:40;;;;;;;5.38;2.63;;;;;;;13.56;54.69;102002.06;7397654;19;20486;-67
2022/05/18 06:31:09;;;;;;;7.07;2.38;;;;;;;13.60;54.88;101999.34;7396728;19;20398;-67
2022/05/18 06:33:39;;;;;;;6.50;2.50;;;;;;;13.65;54.90;102004.56;7400112;19;20018;-67
2022/05/18 06:36:08;;;;;;;6.53;1.92;;;;;;;13.73;54.84;102004.47;7399799;19;20025;-67
2022/05/18 06:38:36;;;;;;;6.13;2.00;;;;;;;13.78;54.75;102000.00;7399393;19;20031;-67
2022/05/18 06:43:47;;;;;;;5.28;1.98;;;;;;;13.92;54.66;102012.97;7400232;19;20029;-68
2022/05/18 06:46:16;;;;;;;8.23;2.30;;;;;;;13.97;54.40;102014.63;7399587;19;20591;-67
2022/05/18 06:48:44;;;;;;;5.85;3.05;;;;;;;14.02;54.47;102015.41;7397130;19;20027;-69
2022/05/18 06:51:12;;;;;;;7.80;2.47;;;;;;;14.08;54.50;102018.84;7397172;19;20031;-67
2022/05/18 06:53:41;;;;;;;6.32;2.40;;;;;;;14.16;54.54;102015.19;7396411;19;20028;-68
2022/05/18 06:56:09;;;;;;;5.72;3.10;;;;;;;14.21;54.55;102016.91;7400420;19;20363;-67
2022/05/18 06:58:37;;;;;;;5.50;2.10;;;;;;;14.25;54.54;102013.31;7399627;19;20031;-68
2022/05/18 07:01:08;;;;;;;5.15;2.15;;;;;;;14.29;54.61;102013.25;7396561;19;20368;-68
2022/05/18 07:03:37;;;;;;;5.55;2.55;;;;;;;14.35;54.75;102014.91;7397175;19;20023;-68
2022/05/18 07:06:08;;;;;;;2.92;2.00;;;;;;;14.40;54.86;102010.41;7398831;19;20022;-68
2022/05/18 07:08:37;;;;;;;5.07;2.30;;;;;;;14.48;55.11;102019.06;7397006;19;20109;-67
2022/05/18 07:11:06;;;;;;;8.15;3.20;;;;;;;14.54;54.73;102011.94;7396321;19;20022;-68
2022/05/18 07:13:35;;;;;;;8.10;4.45;;;;;;;14.58;54.81;102014.47;7398875;19;20050;-66
2022/05/18 07:16:08;;;;;;;6.63;3.33;;;;;;;14.64;54.87;102005.59;7395729;19;20134;-66
2022/05/18 07:18:36;;;;;;;6.40;2.75;;;;;;;14.70;54.76;102000.22;7398552;19;20015;-67
2022/05/18 07:21:08;;;;;;;7.32;2.72;;;;;;;14.77;55.19;102008.88;7396365;19;20018;-67
2022/05/18 07:23:36;;;;;;;5.43;2.65;;;;;;;14.84;55.05;102005.25;7398537;19;20011;-67
2022/05/18 07:26:04;;;;;;;7.38;4.30;;;;;;;14.90;54.91;102010.41;7398661;19;20035;-66
2022/05/18 07:28:32;;;;;;;6.70;2.95;;;;;;;14.98;55.15;102004.97;7396188;19;20018;-66
2022/05/18 07:31:01;;;;;;;7.53;3.55;;;;;;;15.05;55.21;101998.66;7396085;19;20031;-67
2022/05/18 07:33:31;;;;;;;10.13;2.53;;;;;;;15.13;55.02;102004.66;7396137;19;20431;-66
2022/05/18 07:36:02;;;;;;;7.05;2.70;;;;;;;15.20;54.87;102002.72;7398114;19;20014;-66
2022/05/18 07:38:33;;;;;;;4.40;2.83;;;;;;;15.26;54.85;102009.69;7397399;19;20031;-66
2022/05/18 07:41:03;;;;;;;7.55;2.67;;;;;;;15.34;55.13;102006.88;7395016;19;20027;-67
2022/05/18 07:43:32;;;;;;;7.25;3.15;;;;;;;15.40;55.12;102007.59;7395714;19;20481;-67
2022/05/18 07:46:02;;;;;;;6.70;2.95;;;;;;;15.49;55.27;102001.25;7397521;19;20021;-66
2022/05/18 07:48:35;;;;;;;6.28;2.70;;;;;;;15.56;55.40;102002.00;7397500;19;20011;-66
2022/05/18 07:51:05;;;;;;;4.90;2.80;;;;;;;15.63;55.37;101998.28;7395297;19;20011;-67
2022/05/18 07:53:33;;;;;;;6.30;2.95;;;;;;;15.70;55.67;102001.69;7397550;19;20011;-66
2022/05/18 07:56:03;;;;;;;4.63;3.22;;;;;;;15.77;55.42;101997.97;7396817;19;20014;-66
2022/05/18 07:58:33;;;;;;;7.35;2.83;;;;;;;15.86;55.33;101996.91;7394935;19;20021;-66
2022/05/18 08:01:01;;;;;;;4.68;2.42;;;;;;;15.94;55.38;101995.81;7394542;19;20022;-66
2022/05/18 08:03:30;;;;;;;6.25;3.10;;;;;;;16.01;55.22;101988.63;7397072;19;20111;-66
2022/05/18 08:06:02;;;;;;;7.35;2.90;;;;;;;16.08;55.24;101990.19;7392441;19;20015;-67
2022/05/18 08:08:33;;;;;;;5.78;3.08;;;;;;;16.16;54.93;102000.56;7396508;19;20019;-67
2022/05/18 08:16:30;;;;;;;6.15;2.30;;;;;;;16.35;54.68;101998.34;7396862;19;20074;-67
2022/05/18 08:19:00;;;;;;;5.05;2.92;;;;;;;16.42;54.56;101999.91;7395564;19;20018;-66
2022/05/18 08:21:34;;;;;;;5.72;2.80;;;;;;;16.53;54.90;102001.41;7396440;19;20025;-67
2022/05/18 08:24:04;;;;;;;5.00;2.95;;;;;;;16.58;54.80;101989.78;7396263;19;20493;-68
2022/05/18 08:26:35;;;;;;;7.60;3.00;;;;;;;16.67;54.51;101993.97;7393687;19;20014;-66
2022/05/18 08:29:08;;;;;;;4.82;3.03;;;;;;;16.73;54.20;101988.50;7395703;19;20018;-68
2022/05/18 08:31:38;;;;;;;9.32;3.72;;;;;;;16.82;54.51;101989.13;7393748;19;20014;-67
2022/05/18 08:34:08;;;;;;;5.32;3.42;;;;;;;16.90;54.44;101989.81;7395502;19;20083;-67
2022/05/18 08:36:42;;;;;;;5.90;3.13;;;;;;;16.99;54.51;101994.88;7393796;19;20038;-67
2022/05/18 08:39:19;;;;;;;7.70;3.58;;;;;;;17.07;54.50;101990.22;7394374;19;20018;-66
2022/05/18 08:41:58;;;;;;;8.23;3.53;;;;;;;17.18;54.37;101989.03;7393345;19;20078;-65
2022/05/18 08:44:36;;;;;;;5.90;3.10;;;;;;;17.28;54.57;101989.63;7393843;19;20011;-65
2022/05/18 08:47:12;;;;;;;6.93;3.35;;;;;;;17.37;54.51;101990.19;7395540;19;20037;-66
2022/05/18 08:49:52;;;;;;;3.90;3.35;;;;;;;17.48;54.70;101991.66;7394189;19;20529;-66
2022/05/18 08:52:50;;;;;;;5.60;3.10;;;;;;;17.57;54.56;101986.94;7396485;19;20015;-66
2022/05/18 08:55:48;;;;;;;7.18;3.42;;;;;;;17.68;54.55;101975.09;7395270;19;20038;-65
2022/05/18 08:58:26;;;;;;;6.40;3.53;;;;;;;17.81;54.73;101975.59;7395432;19;20014;-67
2022/05/18 09:01:01;;;;;;;11.63;3.88;;;;;;;17.92;54.67;101982.28;7393490;19;20034;-67
2022/05/18 09:03:36;;;;;;;8.13;3.83;;;;;;;18.02;54.59;101974.94;7394250;19;20038;-65
2022/05/18 09:06:14;;;;;;;6.85;4.53;;;;;;;18.13;54.50;101976.34;7392812;19;20018;-65
2022/05/18 09:10:12;;;;;;;6.43;3.40;;;;;;;18.24;54.37;101980.34;7393295;19;20027;-66
2022/05/18 09:11:44;;;;;;;6.45;3.10;;;;;;;18.35;54.35;101969.38;7394952;19;20038;-66
2022/05/18 09:14:17;;;;;;;7.97;3.80;;;;;;;18.45;54.33;101961.94;7394311;19;20046;-65
2022/05/18 09:16:52;;;;;;;6.18;3.40;;;;;;;18.56;54.40;101964.22;7394004;19;20019;-67
2022/05/18 09:19:37;;;;;;;5.47;3.35;;;;;;;18.65;54.47;101963.91;7392870;19;20010;-66
2022/05/18 09:22:21;;;;;;;5.32;3.55;;;;;;;18.75;54.66;101958.22;7394384;19;20014;-66
2022/05/18 09:25:06;;;;;;;8.88;4.07;;;;;;;18.88;54.08;101962.19;7394417;19;20014;-66
2022/05/18 09:27:55;;;;;;;5.95;4.13;;;;;;;18.97;54.26;101959.19;7392669;19;20026;-66
2022/05/18 09:30:29;;;;;;;6.20;4.22;;;;;;;19.08;54.46;101963.25;7392809;19;20046;-66
2022/05/18 09:33:37;;;;;;;6.25;4.22;;;;;;;19.19;54.14;101963.69;7392579;19;20119;-68
2022/05/18 09:36:29;;;;;;;7.65;3.70;;;;;;;19.29;54.02;101958.88;7394306;19;20014;-67
2022/05/18 09:39:08;;;;;;;9.18;4.32;;;;;;;19.36;54.35;101952.38;7392287;19;20078;-68
2022/05/18 09:41:47;;;;;;;5.50;4.00;;;;;;;19.50;53.77;101951.84;7392226;19;20021;-67
2022/05/18 09:44:26;;;;;;;6.40;4.55;;;;;;;19.61;53.88;101949.59;7392261;19;20411;-67
2022/05/18 09:46:57;;;;;;;6.32;4.10;;;;;;;19.70;53.66;101949.25;7391612;19;20015;-66
2022/05/18 09:49:34;;;;;;;10.52;4.50;;;;;;;19.82;53.14;101947.00;7393627;19;20074;-67
2022/05/18 09:52:06;;;;;;;6.97;4.43;;;;;;;19.91;52.83;101946.63;7393295;19;20027;-67
2022/05/18 09:54:38;;;;;;;8.00;3.95;;;;;;;20.01;53.18;101945.31;7391662;19;20015;-67
2022/05/18 09:57:16;;;;;;;6.45;3.33;;;;;;;20.12;52.36;101942.22;7391529;19;20038;-67
2022/05/18 09:59:50;;;;;;;4.65;3.88;;;;;;;20.23;51.75;101940.88;7392334;19;20074;-68
2022/05/18 10:07:49;;;;;;;6.40;3.72;;;;;;;20.48;50.60;101933.50;7393824;19;20007;-68
2022/05/18 10:10:25;;;;;;;3.55;3.00;;;;;;;20.58;50.05;101935.78;7392357;19;20112;-68
2022/05/18 10:13:09;;;;;;;6.72;3.60;;;;;;;20.67;49.96;101928.25;7393296;19;20015;-67
2022/05/18 10:15:40;;;;;;;5.85;3.28;;;;;;;20.79;49.54;101937.50;7392887;19;20036;-68
2022/05/18 10:18:36;;;;;;;7.63;2.58;;;;;;;20.91;46.04;101921.88;7392884;19;20010;-68
2022/05/18 10:21:18;;;;;;;5.90;2.90;;;;;;;21.02;46.83;101922.22;7390999;19;20028;-68
2022/05/18 10:23:56;;;;;;;5.28;3.08;;;;;;;21.11;46.79;101918.25;7392749;19;20006;-67
2022/05/18 10:26:30;;;;;;;6.82;2.78;;;;;;;21.23;45.95;101919.47;7389570;19;20015;-67
2022/05/18 10:29:06;;;;;;;6.90;3.17;;;;;;;21.36;44.68;101920.63;7395305;19;20014;-67
2022/05/18 10:31:40;;;;;;;4.68;2.65;;;;;;;21.47;44.32;101923.63;7396182;19;20015;-68
2022/05/18 10:34:26;;;;;;;3.60;2.40;;;;;;;21.60;44.41;101915.91;7399239;19;20017;-67
2022/05/18 10:36:58;;;;;;;5.95;2.40;;;;;;;21.73;44.06;101923.31;7396903;19;20018;-68
2022/05/18 10:39:35;;;;;;;5.85;2.17;;;;;;;21.84;42.06;101923.63;7396868;19;20042;-67
2022/05/18 10:42:13;;;;;;;5.68;2.63;;;;;;;21.92;42.29;101918.75;7397861;19;20525;-68
2022/05/18 10:44:47;;;;;;;7.75;2.50;;;;;;;22.04;42.66;101916.38;7399939;19;20363;-68
2022/05/18 10:47:32;;;;;;;8.65;2.80;;;;;;;22.14;42.23;101923.00;7399427;19;20019;-68
2022/05/18 10:50:34;;;;;;;5.80;2.40;;;;;;;22.28;41.36;101922.28;7397789;19;20416;-70
2022/05/18 10:53:20;;;;;;;6.97;2.53;;;;;;;22.34;40.80;101911.22;7402371;19;20042;-67
2022/05/18 10:55:57;;;;;;;6.93;2.47;;;;;;;22.42;39.88;101910.88;7398701;19;20019;-68
2022/05/18 10:58:29;;;;;;;5.60;2.65;;;;;;;22.47;39.99;101918.63;7400018;19;20019;-67
2022/05/18 11:01:03;;;;;;;11.88;2.85;;;;;;;22.55;39.96;101913.75;7398093;19;20035;-67
2022/05/18 11:03:38;;;;;;;3.95;2.45;;;;;;;22.60;40.28;101909.03;7399884;19;20030;-67
2022/05/18 11:06:12;;;;;;;3.20;2.58;;;;;;;22.69;40.36;101902.31;7399421;19;20011;-69
2022/05/18 11:08:40;;;;;;;8.07;2.88;;;;;;;22.78;40.62;101902.69;7399387;19;20014;-67
2022/05/18 11:11:41;;;;;;;4.07;2.40;;;;;;;22.90;40.65;101903.78;7396884;19;20018;-68
2022/05/18 11:14:19;;;;;;;4.25;2.53;;;;;;;23.02;40.37;101904.06;7398769;19;20018;-67
2022/05/18 11:17:03;;;;;;;4.50;2.85;;;;;;;23.15;40.13;101894.44;7396241;19;20130;-68
2022/05/18 11:19:42;;;;;;;5.15;2.90;;;;;;;23.26;39.92;101886.63;7396350;19;20022;-68
2022/05/18 11:22:23;;;;;;;6.32;3.05;;;;;;;23.37;39.06;101882.50;7398995;19;20019;-68
2022/05/18 11:25:15;;;;;;;5.65;2.78;;;;;;;23.48;39.17;101879.16;7399000;19;20015;-67
2022/05/18 11:27:48;;;;;;;4.43;3.13;;;;;;;23.59;39.59;101880.28;7397977;19;20398;-67
2022/05/18 11:30:20;;;;;;;5.53;3.17;;;;;;;23.69;39.08;101877.03;7394944;19;20060;-67
2022/05/18 11:33:03;;;;;;;7.60;3.85;;;;;;;23.80;38.10;101869.22;7395766;19;20024;-67
2022/05/18 11:35:44;;;;;;;4.75;3.47;;;;;;;23.90;38.47;101872.22;7398055;19;20036;-69
2022/05/18 11:38:31;;;;;;;5.72;3.28;;;;;;;24.03;37.62;101862.50;7395664;19;20014;-69
2022/05/18 11:41:14;;;;;;;6.38;3.15;;;;;;;24.20;38.19;101864.16;7394631;19;20018;-69
2022/05/18 11:44:00;;;;;;;4.70;2.95;;;;;;;24.38;38.21;101858.59;7399213;19;20022;-67
2022/05/18 11:47:00;;;;;;;7.70;3.08;;;;;;;24.59;37.11;101860.88;7398423;19;20015;-66
2022/05/18 11:49:39;;;;;;;6.38;3.58;;;;;;;24.75;36.57;101861.66;7396285;19;20015;-68
2022/05/18 11:52:26;;;;;;;4.28;3.15;;;;;;;24.93;37.14;101866.78;7396154;19;20436;-69
2022/05/18 11:55:11;;;;;;;4.93;3.08;;;;;;;25.08;36.48;101857.72;7398604;19;20023;-69
2022/05/18 11:57:49;;;;;;;5.60;3.13;;;;;;;25.23;36.56;101861.22;7398479;19;20019;-69
2022/05/18 12:00:39;;;;;;;4.28;3.00;;;;;;;25.33;35.19;101853.44;7396109;19;20031;-69
2022/05/18 12:03:33;;;;;;;8.75;3.13;;;;;;;25.52;35.75;101850.38;7398123;19;20039;-70
2022/05/18 12:06:30;;;;;;;7.82;3.15;;;;;;;25.69;35.46;101833.97;7398325;19;20023;-69
2022/05/18 12:09:12;;;;;;;6.47;3.10;;;;;;;25.84;34.79;101850.88;7397671;19;20018;-69